Time,TemperatureF,DewpointF,PressureIn,WindDirection,WindDirectionDegrees,WindSpeedMPH,WindSpeedGustMPH,Humidity,HourlyPrecipIn,Conditions,Clouds,dailyrainin,SoftwareType,DateUTC
2013-08-19 00:01:00,69.7,67.5,30.08,WSW,248,0.0,1.1,93,0.02,,,0.00,WUHU216HW,2013-08-19 04:01:00,
2013-08-19 00:06:00,69.7,67.5,30.08,WSW,248,0.0,1.1,93,0.01,,,0.00,WUHU216HW,2013-08-19 04:06:00,
2013-08-19 00:11:00,69.7,67.5,30.09,WSW,248,0.0,0.0,93,0.02,,,0.01,WUHU216HW,2013-08-19 04:11:00,
2013-08-19 00:16:00,69.7,67.5,30.08,WSW,248,0.0,0.0,93,0.01,,,0.01,WUHU216HW,2013-08-19 04:16:00,
2013-08-19 00:21:00,69.7,67.5,30.09,WSW,248,0.0,0.0,93,0.01,,,0.01,WUHU216HW,2013-08-19 04:21:00,
2013-08-19 00:26:00,69.7,67.5,30.09,WSW,248,0.0,0.0,93,0.01,,,0.01,WUHU216HW,2013-08-19 04:26:00,
2013-08-19 00:31:00,69.7,67.5,30.09,WSW,248,0.0,0.0,93,0.01,,,0.01,WUHU216HW,2013-08-19 04:31:00,
2013-08-19 00:36:00,69.5,67.3,30.09,WSW,248,0.0,0.0,93,0.01,,,0.01,WUHU216HW,2013-08-19 04:36:00,
2013-08-19 00:41:00,69.5,67.3,30.09,WSW,248,0.0,0.0,93,0.01,,,0.01,WUHU216HW,2013-08-19 04:41:00,
2013-08-19 00:46:00,69.5,67.3,30.08,WSW,248,0.0,0.0,93,0.02,,,0.02,WUHU216HW,2013-08-19 04:46:00,
2013-08-19 00:51:00,69.5,67.3,30.09,WSW,248,0.0,0.0,93,0.02,,,0.02,WUHU216HW,2013-08-19 04:51:00,
2013-08-19 00:56:00,69.5,67.3,30.08,WSW,248,0.0,0.0,93,0.02,,,0.02,WUHU216HW,2013-08-19 04:56:00,
2013-08-19 01:01:00,69.5,67.3,30.09,WSW,248,0.0,0.0,93,0.02,,,0.02,WUHU216HW,2013-08-19 05:01:00,
2013-08-19 01:06:00,69.5,67.3,30.09,WSW,248,0.0,0.0,93,0.03,,,0.03,WUHU216HW,2013-08-19 05:06:00,
2013-08-19 01:11:00,69.5,67.3,30.08,WSW,248,0.0,0.0,93,0.02,,,0.03,WUHU216HW,2013-08-19 05:11:00,
2013-08-19 01:16:00,69.5,67.3,30.08,WSW,248,0.0,0.0,93,0.03,,,0.04,WUHU216HW,2013-08-19 05:16:00,
2013-08-19 01:21:00,69.5,67.3,30.07,West,270,0.0,0.0,93,0.04,,,0.05,WUHU216HW,2013-08-19 05:21:00,
2013-08-19 01:26:00,69.5,67.7,30.07,West,270,0.0,0.0,94,0.05,,,0.06,WUHU216HW,2013-08-19 05:26:00,
2013-08-19 01:31:00,69.5,67.7,30.07,West,270,0.0,0.0,94,0.06,,,0.07,WUHU216HW,2013-08-19 05:31:00,
2013-08-19 01:36:00,69.5,67.7,30.06,West,270,0.0,0.0,94,0.07,,,0.08,WUHU216HW,2013-08-19 05:36:00,
2013-08-19 01:41:00,69.5,67.7,30.06,West,270,0.0,0.0,94,0.08,,,0.09,WUHU216HW,2013-08-19 05:41:00,
2013-08-19 01:46:00,69.3,67.5,30.07,West,270,0.0,0.0,94,0.09,,,0.11,WUHU216HW,2013-08-19 05:46:00,
2013-08-19 01:51:00,69.3,67.5,30.06,West,270,0.0,0.0,94,0.10,,,0.12,WUHU216HW,2013-08-19 05:51:00,
2013-08-19 01:56:00,69.3,67.5,30.06,West,270,0.0,0.0,94,0.11,,,0.13,WUHU216HW,2013-08-19 05:56:00,
2013-08-19 02:01:00,69.3,67.5,30.06,West,270,0.0,0.0,94,0.12,,,0.14,WUHU216HW,2013-08-19 06:01:00,
2013-08-19 02:06:00,69.3,67.5,30.06,West,270,0.0,0.0,94,0.12,,,0.15,WUHU216HW,2013-08-19 06:06:00,
2013-08-19 02:11:00,69.3,67.5,30.06,West,270,0.0,0.0,94,0.13,,,0.16,WUHU216HW,2013-08-19 06:11:00,
2013-08-19 02:16:00,69.3,67.5,30.06,West,270,0.0,0.0,94,0.13,,,0.17,WUHU216HW,2013-08-19 06:16:00,
2013-08-19 02:21:00,69.3,67.5,30.06,WSW,248,0.0,0.0,94,0.12,,,0.17,WUHU216HW,2013-08-19 06:21:00,
2013-08-19 02:26:00,69.3,67.5,30.06,WSW,248,0.0,0.0,94,0.11,,,0.17,WUHU216HW,2013-08-19 06:26:00,
2013-08-19 02:31:00,69.3,67.5,30.06,WSW,248,0.0,0.0,94,0.10,,,0.17,WUHU216HW,2013-08-19 06:31:00,
2013-08-19 02:36:00,69.3,67.5,30.06,WSW,248,0.0,0.0,94,0.09,,,0.17,WUHU216HW,2013-08-19 06:36:00,
2013-08-19 02:41:00,69.3,67.5,30.05,West,270,0.0,0.0,94,0.09,,,0.18,WUHU216HW,2013-08-19 06:41:00,
2013-08-19 02:46:00,69.3,67.5,30.05,NW,315,0.0,0.4,94,0.07,,,0.18,WUHU216HW,2013-08-19 06:46:00,
2013-08-19 02:51:00,69.1,67.3,30.05,NW,315,0.0,0.4,94,0.06,,,0.18,WUHU216HW,2013-08-19 06:51:00,
2013-08-19 02:56:00,69.1,67.3,30.05,NW,315,0.0,0.0,94,0.05,,,0.18,WUHU216HW,2013-08-19 06:56:00,
2013-08-19 03:01:00,69.1,67.3,30.05,NW,315,0.0,0.4,94,0.05,,,0.19,WUHU216HW,2013-08-19 07:01:00,
2013-08-19 03:06:00,68.9,67.2,30.05,NW,315,0.0,1.1,94,0.04,,,0.19,WUHU216HW,2013-08-19 07:06:00,
2013-08-19 03:11:00,68.9,67.2,30.05,NW,315,0.0,1.1,94,0.03,,,0.19,WUHU216HW,2013-08-19 07:11:00,
2013-08-19 03:16:00,68.9,67.2,30.04,NW,315,0.0,0.4,94,0.03,,,0.20,WUHU216HW,2013-08-19 07:16:00,
2013-08-19 03:21:00,68.8,67.0,30.05,NW,315,0.0,0.0,94,0.03,,,0.20,WUHU216HW,2013-08-19 07:21:00,
2013-08-19 03:26:00,68.8,67.0,30.04,NW,315,0.0,0.0,94,0.03,,,0.20,WUHU216HW,2013-08-19 07:26:00,
2013-08-19 03:31:00,68.8,67.0,30.04,NW,315,0.0,0.2,94,0.04,,,0.21,WUHU216HW,2013-08-19 07:31:00,
2013-08-19 03:36:00,68.8,67.0,30.04,NW,315,0.0,0.2,94,0.04,,,0.21,WUHU216HW,2013-08-19 07:36:00,
2013-08-19 03:41:00,68.8,67.0,30.04,NW,315,0.0,0.2,94,0.03,,,0.21,WUHU216HW,2013-08-19 07:41:00,
2013-08-19 03:46:00,68.8,67.0,30.03,NW,315,0.0,0.9,94,0.04,,,0.22,WUHU216HW,2013-08-19 07:46:00,
2013-08-19 03:51:00,68.8,67.0,30.03,NW,315,0.0,0.9,94,0.04,,,0.22,WUHU216HW,2013-08-19 07:51:00,
2013-08-19 03:56:00,68.8,67.0,30.03,NW,315,0.0,0.0,94,0.04,,,0.22,WUHU216HW,2013-08-19 07:56:00,
2013-08-19 04:01:00,68.6,66.8,30.03,NW,315,0.0,1.1,94,0.03,,,0.22,WUHU216HW,2013-08-19 08:01:00,
2013-08-19 04:06:00,68.6,66.8,30.03,NW,315,0.0,1.1,94,0.03,,,0.22,WUHU216HW,2013-08-19 08:06:00,
2013-08-19 04:11:00,68.6,66.8,30.03,NW,315,0.0,1.1,94,0.03,,,0.22,WUHU216HW,2013-08-19 08:11:00,
2013-08-19 04:16:00,68.6,66.8,30.03,NW,315,0.0,0.0,94,0.02,,,0.22,WUHU216HW,2013-08-19 08:16:00,
2013-08-19 04:21:00,68.6,66.8,30.03,NW,315,0.0,0.0,94,0.02,,,0.22,WUHU216HW,2013-08-19 08:21:00,
2013-08-19 04:26:00,68.6,66.8,30.03,NW,315,0.0,0.0,94,0.02,,,0.22,WUHU216HW,2013-08-19 08:26:00,
2013-08-19 04:31:00,68.6,66.8,30.03,NW,315,0.0,0.0,94,0.02,,,0.23,WUHU216HW,2013-08-19 08:31:00,
2013-08-19 04:36:00,68.6,67.1,30.03,NW,315,1.1,1.8,95,0.02,,,0.23,WUHU216HW,2013-08-19 08:36:00,
2013-08-19 04:41:00,68.6,67.1,30.03,NNW,338,0.4,1.8,95,0.02,,,0.23,WUHU216HW,2013-08-19 08:41:00,
2013-08-19 04:46:00,68.6,67.1,30.03,NNW,338,1.3,1.8,95,0.01,,,0.23,WUHU216HW,2013-08-19 08:46:00,
2013-08-19 04:51:00,68.6,67.1,30.03,NE,45,1.3,2.5,95,0.01,,,0.23,WUHU216HW,2013-08-19 08:51:00,
2013-08-19 04:56:00,68.6,67.1,30.03,NE,45,0.4,2.5,95,0.01,,,0.23,WUHU216HW,2013-08-19 08:56:00,
2013-08-19 05:01:00,68.6,67.1,30.03,ENE,68,1.8,2.0,95,0.01,,,0.23,WUHU216HW,2013-08-19 09:01:00,
2013-08-19 05:06:00,68.6,67.1,30.02,NE,45,0.9,2.2,95,0.02,,,0.24,WUHU216HW,2013-08-19 09:06:00,
2013-08-19 05:11:00,68.6,67.1,30.02,NE,45,1.1,2.5,95,0.02,,,0.24,WUHU216HW,2013-08-19 09:11:00,
2013-08-19 05:16:00,68.6,67.1,30.02,ENE,68,1.8,2.9,95,0.02,,,0.24,WUHU216HW,2013-08-19 09:16:00,
2013-08-19 05:21:00,68.6,67.1,30.02,ENE,68,1.1,2.9,95,0.02,,,0.24,WUHU216HW,2013-08-19 09:21:00,
2013-08-19 05:26:00,68.6,67.1,30.02,ENE,68,2.7,2.9,95,0.03,,,0.25,WUHU216HW,2013-08-19 09:26:00,
2013-08-19 05:31:00,68.4,66.9,30.02,NE,45,3.1,3.1,95,0.02,,,0.25,WUHU216HW,2013-08-19 09:31:00,
2013-08-19 05:36:00,68.4,66.9,30.02,NNE,23,1.1,3.1,95,0.02,,,0.25,WUHU216HW,2013-08-19 09:36:00,
2013-08-19 05:41:00,68.4,66.9,30.02,ENE,68,1.3,3.1,95,0.02,,,0.25,WUHU216HW,2013-08-19 09:41:00,
2013-08-19 05:46:00,68.4,66.9,30.02,NE,45,1.1,3.1,95,0.03,,,0.26,WUHU216HW,2013-08-19 09:46:00,
2013-08-19 05:51:00,68.4,66.9,30.02,NE,45,1.8,3.1,95,0.03,,,0.26,WUHU216HW,2013-08-19 09:51:00,
2013-08-19 05:56:00,68.4,66.9,30.02,ENE,68,2.2,2.9,95,0.03,,,0.26,WUHU216HW,2013-08-19 09:56:00,
2013-08-19 06:01:00,68.4,66.9,30.02,ENE,68,3.4,3.4,95,0.03,,,0.26,WUHU216HW,2013-08-19 10:01:00,
2013-08-19 06:05:00,68.2,66.7,30.01,NE,45,2.5,3.8,95,0.02,,,0.26,WUHU216HW,2013-08-19 10:05:00,
2013-08-19 06:10:00,68.2,66.7,30.01,NE,45,4.0,4.0,95,0.02,,,0.26,WUHU216HW,2013-08-19 10:10:00,
2013-08-19 06:15:00,68.0,66.5,30.01,NE,45,1.3,4.0,95,0.02,,,0.26,WUHU216HW,2013-08-19 10:15:00,
2013-08-19 06:20:00,68.0,66.5,30.01,NE,45,1.6,4.0,95,0.02,,,0.26,WUHU216HW,2013-08-19 10:20:00,
2013-08-19 06:25:00,67.9,66.3,30.02,NNE,23,2.9,3.4,95,0.01,,,0.26,WUHU216HW,2013-08-19 10:25:00,
2013-08-19 06:30:00,67.9,66.3,30.02,NE,45,0.9,3.4,95,0.01,,,0.26,WUHU216HW,2013-08-19 10:30:00,
2013-08-19 06:35:00,67.7,66.4,30.02,NE,45,2.9,3.4,96,0.01,,,0.26,WUHU216HW,2013-08-19 10:35:00,
2013-08-19 06:40:00,67.7,66.4,30.02,NNE,23,1.1,3.8,96,0.01,,,0.26,WUHU216HW,2013-08-19 10:40:00,
2013-08-19 06:45:00,67.7,66.4,30.03,NE,45,1.1,3.8,96,0.00,,,0.26,WUHU216HW,2013-08-19 10:45:00,
2013-08-19 06:50:00,67.7,66.4,30.03,ENE,68,3.4,3.4,96,0.02,,,0.28,WUHU216HW,2013-08-19 10:50:00,
2013-08-19 06:55:00,67.5,66.2,30.03,NE,45,3.1,4.0,96,0.04,,,0.30,WUHU216HW,2013-08-19 10:55:00,
2013-08-19 07:00:00,67.5,66.2,30.02,ENE,68,4.5,4.9,96,0.06,,,0.32,WUHU216HW,2013-08-19 11:00:00,
2013-08-19 07:05:00,67.5,66.2,30.02,NNE,23,4.0,4.9,96,0.06,,,0.32,WUHU216HW,2013-08-19 11:05:00,
2013-08-19 07:10:00,67.5,66.2,30.02,North,0,4.0,4.7,96,0.08,,,0.34,WUHU216HW,2013-08-19 11:10:00,
2013-08-19 07:15:00,67.5,66.2,30.02,NNE,23,3.4,6.0,96,0.08,,,0.34,WUHU216HW,2013-08-19 11:15:00,
2013-08-19 07:20:00,67.3,66.1,30.01,NNE,23,4.7,6.0,96,0.08,,,0.34,WUHU216HW,2013-08-19 11:20:00,
2013-08-19 07:25:00,67.5,66.2,30.02,NE,45,1.6,5.4,96,0.08,,,0.34,WUHU216HW,2013-08-19 11:25:00,
2013-08-19 07:30:00,67.3,66.1,30.01,ENE,68,4.0,5.4,96,0.08,,,0.34,WUHU216HW,2013-08-19 11:30:00,
2013-08-19 07:35:00,67.3,66.1,30.01,NNE,23,2.9,7.4,96,0.08,,,0.34,WUHU216HW,2013-08-19 11:35:00,
2013-08-19 07:40:00,67.3,66.1,30.01,ENE,68,2.9,7.4,96,0.08,,,0.34,WUHU216HW,2013-08-19 11:40:00,
2013-08-19 07:45:00,67.3,66.1,30.01,ENE,68,1.1,5.4,96,0.08,,,0.34,WUHU216HW,2013-08-19 11:45:00,
2013-08-19 07:50:00,67.3,66.1,30.01,ENE,68,5.1,5.4,96,0.06,,,0.34,WUHU216HW,2013-08-19 11:50:00,
2013-08-19 07:55:00,67.3,66.1,30.01,NE,45,3.6,5.6,96,0.04,,,0.34,WUHU216HW,2013-08-19 11:55:00,
2013-08-19 08:00:00,67.3,66.1,30.01,NE,45,3.1,5.6,96,0.03,,,0.35,WUHU216HW,2013-08-19 12:00:00,
2013-08-19 08:05:00,67.3,66.1,30.01,NNE,23,2.5,4.7,96,0.03,,,0.35,WUHU216HW,2013-08-19 12:05:00,
2013-08-19 08:10:00,67.3,66.1,30.01,ENE,68,3.4,5.4,96,0.01,,,0.35,WUHU216HW,2013-08-19 12:10:00,
2013-08-19 08:15:00,67.3,66.1,30.01,East,90,3.4,6.9,96,0.01,,,0.35,WUHU216HW,2013-08-19 12:15:00,
2013-08-19 08:20:00,67.3,66.1,30.01,North,0,4.7,6.9,96,0.01,,,0.35,WUHU216HW,2013-08-19 12:20:00,
2013-08-19 08:25:00,67.3,66.1,30.01,NE,45,1.8,6.3,96,0.01,,,0.35,WUHU216HW,2013-08-19 12:25:00,
2013-08-19 08:30:00,67.1,65.9,30.01,NNE,23,3.4,6.3,96,0.01,,,0.35,WUHU216HW,2013-08-19 12:30:00,
2013-08-19 08:35:00,67.1,65.9,30.01,ESE,113,1.6,5.1,96,0.01,,,0.35,WUHU216HW,2013-08-19 12:35:00,
2013-08-19 08:40:00,67.1,65.9,30.03,ENE,68,1.6,4.5,96,0.01,,,0.35,WUHU216HW,2013-08-19 12:40:00,
2013-08-19 08:45:00,67.1,65.9,30.04,WSW,248,5.6,5.6,96,0.03,,,0.37,WUHU216HW,2013-08-19 12:45:00,
2013-08-19 08:50:00,67.1,65.9,30.03,NE,45,6.3,6.3,96,0.18,,,0.52,WUHU216HW,2013-08-19 12:50:00,
2013-08-19 08:55:00,67.0,65.7,30.02,East,90,3.8,6.3,96,0.24,,,0.58,WUHU216HW,2013-08-19 12:55:00,
2013-08-19 09:00:00,67.0,65.7,30.02,NNE,23,2.9,6.3,96,0.26,,,0.61,WUHU216HW,2013-08-19 13:00:00,
2013-08-19 09:05:00,67.0,65.7,30.02,NNE,23,7.6,7.6,96,0.26,,,0.61,WUHU216HW,2013-08-19 13:05:00,
2013-08-19 09:10:00,67.0,65.7,30.02,NNE,23,2.0,7.6,96,0.27,,,0.62,WUHU216HW,2013-08-19 13:10:00,
2013-08-19 09:15:00,67.1,65.9,30.03,ENE,68,3.4,6.3,96,0.27,,,0.62,WUHU216HW,2013-08-19 13:15:00,
2013-08-19 09:20:00,67.1,65.9,30.03,NNE,23,0.9,5.6,96,0.27,,,0.62,WUHU216HW,2013-08-19 13:20:00,
2013-08-19 09:25:00,67.1,65.9,30.04,ENE,68,0.9,5.6,96,0.27,,,0.62,WUHU216HW,2013-08-19 13:25:00,
2013-08-19 09:30:00,67.1,65.9,30.05,NNE,23,2.0,3.6,96,0.29,,,0.64,WUHU216HW,2013-08-19 13:30:00,
2013-08-19 09:35:00,67.1,65.9,30.05,NNE,23,2.7,3.8,96,0.32,,,0.67,WUHU216HW,2013-08-19 13:35:00,
2013-08-19 09:40:00,67.1,65.9,30.05,NNE,23,2.5,3.8,96,0.35,,,0.70,WUHU216HW,2013-08-19 13:40:00,
2013-08-19 09:45:00,67.0,65.7,30.06,NE,45,2.2,3.4,96,0.36,,,0.73,WUHU216HW,2013-08-19 13:45:00,
2013-08-19 09:50:00,67.0,65.7,30.05,ENE,68,1.8,3.8,96,0.25,,,0.77,WUHU216HW,2013-08-19 13:50:00,
2013-08-19 09:55:00,67.0,65.7,30.05,NE,45,4.7,4.7,96,0.21,,,0.79,WUHU216HW,2013-08-19 13:55:00,
2013-08-19 10:00:00,66.8,65.5,30.05,NNE,23,2.5,4.7,96,0.18,,,0.79,WUHU216HW,2013-08-19 14:00:00,
2013-08-19 10:05:00,66.8,65.5,30.05,ENE,68,1.8,4.7,96,0.18,,,0.79,WUHU216HW,2013-08-19 14:05:00,
2013-08-19 10:10:00,66.8,65.5,30.05,NE,45,2.2,4.0,96,0.17,,,0.79,WUHU216HW,2013-08-19 14:10:00,
2013-08-19 10:15:00,66.8,65.5,30.06,East,90,1.1,4.0,96,0.17,,,0.79,WUHU216HW,2013-08-19 14:15:00,
2013-08-19 10:20:00,67.0,65.7,30.05,NE,45,0.9,2.2,96,0.17,,,0.79,WUHU216HW,2013-08-19 14:20:00,
2013-08-19 10:25:00,67.0,65.7,30.06,East,90,1.6,2.9,96,0.17,,,0.79,WUHU216HW,2013-08-19 14:25:00,
2013-08-19 10:30:00,67.1,65.9,30.06,NE,45,1.8,2.9,96,0.16,,,0.80,WUHU216HW,2013-08-19 14:30:00,
2013-08-19 10:35:00,67.3,66.1,30.06,ENE,68,2.5,2.7,96,0.13,,,0.80,WUHU216HW,2013-08-19 14:35:00,
2013-08-19 10:40:00,67.1,65.9,30.06,ENE,68,1.6,4.0,96,0.11,,,0.81,WUHU216HW,2013-08-19 14:40:00,
2013-08-19 10:45:00,67.0,65.7,30.06,ESE,113,0.4,4.0,96,0.09,,,0.82,WUHU216HW,2013-08-19 14:45:00,
2013-08-19 10:50:00,67.0,65.7,30.06,ENE,68,0.4,3.8,96,0.07,,,0.84,WUHU216HW,2013-08-19 14:50:00,
2013-08-19 10:55:00,67.0,65.7,30.06,East,90,1.1,3.8,96,0.07,,,0.86,WUHU216HW,2013-08-19 14:55:00,
2013-08-19 11:00:00,67.0,65.7,30.06,ENE,68,0.7,2.5,96,0.09,,,0.88,WUHU216HW,2013-08-19 15:00:00,
2013-08-19 11:05:00,67.0,65.7,30.06,ENE,68,1.8,3.4,96,0.12,,,0.91,WUHU216HW,2013-08-19 15:05:00,
2013-08-19 11:10:00,67.0,65.7,30.07,NE,45,1.1,3.4,96,0.12,,,0.91,WUHU216HW,2013-08-19 15:10:00,
2013-08-19 11:15:00,67.0,65.7,30.07,NE,45,3.4,3.4,96,0.14,,,0.93,WUHU216HW,2013-08-19 15:15:00,
2013-08-19 11:20:00,66.8,65.5,30.07,ENE,68,2.2,3.8,96,0.14,,,0.93,WUHU216HW,2013-08-19 15:20:00,
2013-08-19 11:25:00,66.8,65.5,30.07,NNE,23,0.4,3.8,96,0.16,,,0.95,WUHU216HW,2013-08-19 15:25:00,
2013-08-19 11:30:00,67.0,65.7,30.07,NE,45,1.1,2.7,96,0.15,,,0.95,WUHU216HW,2013-08-19 15:30:00,
2013-08-19 11:35:00,67.0,65.7,30.07,NE,45,2.5,4.0,96,0.15,,,0.95,WUHU216HW,2013-08-19 15:35:00,
2013-08-19 11:40:00,67.1,65.9,30.07,NE,45,1.3,4.0,96,0.14,,,0.95,WUHU216HW,2013-08-19 15:40:00,
2013-08-19 11:45:00,67.3,66.1,30.07,ENE,68,1.6,3.4,96,0.14,,,0.96,WUHU216HW,2013-08-19 15:45:00,
2013-08-19 11:50:00,67.5,66.2,30.07,NNE,23,3.1,3.4,96,0.14,,,0.98,WUHU216HW,2013-08-19 15:50:00,
2013-08-19 11:55:00,67.7,66.4,30.07,ENE,68,2.7,3.6,96,0.12,,,0.98,WUHU216HW,2013-08-19 15:55:00,
2013-08-19 12:00:00,68.0,66.8,30.07,NE,45,2.5,3.8,96,0.10,,,0.98,WUHU216HW,2013-08-19 16:00:00,
2013-08-19 12:05:00,68.2,66.7,30.06,NE,45,1.3,4.3,95,0.07,,,0.98,WUHU216HW,2013-08-19 16:05:00,
2013-08-19 12:10:00,68.6,67.1,30.07,ENE,68,2.9,4.3,95,0.07,,,0.98,WUHU216HW,2013-08-19 16:10:00,
2013-08-19 12:15:00,68.9,67.4,30.07,ENE,68,2.5,3.6,95,0.05,,,0.98,WUHU216HW,2013-08-19 16:15:00,
2013-08-19 12:20:00,69.3,67.8,30.07,NE,45,3.6,3.8,95,0.05,,,0.98,WUHU216HW,2013-08-19 16:20:00,
2013-08-19 12:25:00,69.7,68.1,30.06,NE,45,3.4,4.0,95,0.03,,,0.98,WUHU216HW,2013-08-19 16:25:00,
2013-08-19 12:30:00,70.0,68.2,30.06,NE,45,1.8,4.0,94,0.03,,,0.98,WUHU216HW,2013-08-19 16:30:00,
2013-08-19 12:35:00,70.6,68.8,30.06,ENE,68,1.8,3.4,94,0.03,,,0.98,WUHU216HW,2013-08-19 16:35:00,
2013-08-19 12:40:00,70.6,68.4,30.06,ENE,68,2.5,4.5,93,0.03,,,0.98,WUHU216HW,2013-08-19 16:40:00,
2013-08-19 12:45:00,70.6,67.8,30.06,NE,45,2.5,4.5,91,0.02,,,0.98,WUHU216HW,2013-08-19 16:45:00,
2013-08-19 12:50:00,70.7,67.7,30.06,NNE,23,4.5,4.9,90,0.00,,,0.98,WUHU216HW,2013-08-19 16:50:00,
2013-08-19 12:55:00,70.9,67.5,30.06,ENE,68,3.4,5.8,89,0.00,,,0.98,WUHU216HW,2013-08-19 16:55:00,
2013-08-19 13:00:00,71.3,67.5,30.06,NNE,23,0.7,5.8,88,0.00,,,0.98,WUHU216HW,2013-08-19 17:00:00,
2013-08-19 13:05:00,71.8,68.0,30.06,NE,45,4.7,4.7,88,0.00,,,0.98,WUHU216HW,2013-08-19 17:05:00,
2013-08-19 13:10:00,72.4,68.6,30.06,NE,45,1.6,4.7,88,0.00,,,0.98,WUHU216HW,2013-08-19 17:10:00,
2013-08-19 13:15:00,73.1,69.0,30.06,ENE,68,1.1,4.7,87,0.00,,,0.98,WUHU216HW,2013-08-19 17:15:00,
2013-08-19 13:20:00,73.4,69.4,30.06,NE,45,2.2,3.1,87,0.00,,,0.98,WUHU216HW,2013-08-19 17:20:00,
2013-08-19 13:25:00,73.6,69.2,30.06,East,90,1.6,3.1,86,0.00,,,0.98,WUHU216HW,2013-08-19 17:25:00,
2013-08-19 13:30:00,73.8,69.4,30.05,NE,45,0.4,3.1,86,0.00,,,0.98,WUHU216HW,2013-08-19 17:30:00,
2013-08-19 13:35:00,74.0,69.2,30.05,NE,45,1.3,3.4,85,0.00,,,0.98,WUHU216HW,2013-08-19 17:35:00,
2013-08-19 13:40:00,74.0,69.2,30.05,NE,45,2.9,3.4,85,0.00,,,0.98,WUHU216HW,2013-08-19 17:40:00,
2013-08-19 13:45:00,74.0,68.9,30.05,ENE,68,2.5,3.4,84,0.00,,,0.98,WUHU216HW,2013-08-19 17:45:00,
2013-08-19 13:50:00,73.8,68.7,30.05,NE,45,1.8,3.4,84,0.00,,,0.98,WUHU216HW,2013-08-19 17:50:00,
2013-08-19 13:55:00,74.0,68.5,30.05,ENE,68,3.4,4.3,83,0.00,,,0.98,WUHU216HW,2013-08-19 17:55:00,
2013-08-19 14:00:00,74.0,68.5,30.05,NE,45,0.4,4.3,83,0.00,,,0.98,WUHU216HW,2013-08-19 18:00:00,
2013-08-19 14:05:00,74.2,68.7,30.05,NNE,23,1.3,3.4,83,0.00,,,0.98,WUHU216HW,2013-08-19 18:05:00,
2013-08-19 14:10:00,74.5,69.0,30.05,NE,45,1.1,2.9,83,0.00,,,0.98,WUHU216HW,2013-08-19 18:10:00,
2013-08-19 14:15:00,74.7,69.0,30.05,ENE,68,2.2,2.9,82,0.00,,,0.98,WUHU216HW,2013-08-19 18:15:00,
2013-08-19 14:20:00,74.5,68.4,30.05,ENE,68,1.6,2.7,81,0.00,,,0.98,WUHU216HW,2013-08-19 18:20:00,
2013-08-19 14:25:00,74.9,68.8,30.04,NE,45,3.1,3.8,81,0.00,,,0.98,WUHU216HW,2013-08-19 18:25:00,
2013-08-19 14:30:00,74.9,69.1,30.04,NE,45,1.6,3.8,82,0.00,,,0.98,WUHU216HW,2013-08-19 18:30:00,
2013-08-19 14:35:00,75.2,69.1,30.04,East,90,1.1,3.1,81,0.00,,,0.98,WUHU216HW,2013-08-19 18:35:00,
2013-08-19 14:40:00,75.8,69.6,30.04,ENE,68,1.8,3.4,81,0.00,,,0.98,WUHU216HW,2013-08-19 18:40:00,
2013-08-19 14:45:00,77.0,70.4,30.03,East,90,2.2,3.4,80,0.00,,,0.98,WUHU216HW,2013-08-19 18:45:00,
2013-08-19 14:50:00,78.1,71.5,30.03,NNE,23,0.4,2.7,80,0.00,,,0.98,WUHU216HW,2013-08-19 18:50:00,
2013-08-19 14:55:00,78.7,72.0,30.03,SSW,203,1.1,2.5,80,0.00,,,0.98,WUHU216HW,2013-08-19 18:55:00,
2013-08-19 15:00:00,78.8,71.0,30.03,NE,45,1.3,3.6,77,0.00,,,0.98,WUHU216HW,2013-08-19 19:00:00,
2013-08-19 15:05:00,78.7,70.8,30.03,NE,45,2.5,3.6,77,0.00,,,0.98,WUHU216HW,2013-08-19 19:05:00,
2013-08-19 15:10:00,78.1,69.5,30.02,East,90,4.3,4.3,75,0.00,,,0.98,WUHU216HW,2013-08-19 19:10:00,
2013-08-19 15:15:00,77.8,69.6,30.02,North,0,2.5,4.3,76,0.00,,,0.98,WUHU216HW,2013-08-19 19:15:00,
2013-08-19 15:20:00,77.4,69.2,30.02,North,0,3.4,6.7,76,0.00,,,0.98,WUHU216HW,2013-08-19 19:20:00,
2013-08-19 15:25:00,77.0,68.9,30.02,NNE,23,2.5,6.7,76,0.00,,,0.98,WUHU216HW,2013-08-19 19:25:00,
2013-08-19 15:30:00,76.9,69.1,30.02,ENE,68,1.6,3.8,77,0.00,,,0.98,WUHU216HW,2013-08-19 19:30:00,
2013-08-19 15:35:00,77.0,69.2,30.02,NE,45,2.7,3.1,77,0.00,,,0.98,WUHU216HW,2013-08-19 19:35:00,
2013-08-19 15:40:00,76.9,69.1,30.01,NE,45,1.8,4.0,77,0.00,,,0.98,WUHU216HW,2013-08-19 19:40:00,
2013-08-19 15:45:00,77.0,69.2,30.01,NNE,23,2.0,4.3,77,0.00,,,0.98,WUHU216HW,2013-08-19 19:45:00,
2013-08-19 15:50:00,77.2,69.4,30.01,NE,45,1.1,4.7,77,0.00,,,0.98,WUHU216HW,2013-08-19 19:50:00,
2013-08-19 15:55:00,77.6,69.4,30.01,NNE,23,0.4,4.7,76,0.00,,,0.98,WUHU216HW,2013-08-19 19:55:00,
2013-08-19 16:00:00,77.4,68.9,30.00,NNE,23,3.4,4.7,75,0.00,,,0.98,WUHU216HW,2013-08-19 20:00:00,
2013-08-19 16:05:00,77.0,68.5,30.00,NNE,23,3.8,4.7,75,0.00,,,0.98,WUHU216HW,2013-08-19 20:05:00,
2013-08-19 16:10:00,77.0,68.9,30.01,NE,45,1.1,4.0,76,0.00,,,0.98,WUHU216HW,2013-08-19 20:10:00,
2013-08-19 16:15:00,77.0,68.5,30.01,ENE,68,2.5,4.0,75,0.00,,,0.98,WUHU216HW,2013-08-19 20:15:00,
2013-08-19 16:20:00,77.0,68.9,30.01,NE,45,3.4,4.0,76,0.00,,,0.98,WUHU216HW,2013-08-19 20:20:00,
2013-08-19 16:25:00,77.4,69.2,30.01,NNE,23,1.6,4.0,76,0.00,,,0.98,WUHU216HW,2013-08-19 20:25:00,
2013-08-19 16:30:00,78.1,69.5,30.01,ENE,68,1.1,3.6,75,0.00,,,0.98,WUHU216HW,2013-08-19 20:30:00,
2013-08-19 16:35:00,78.1,69.5,30.01,ENE,68,1.8,3.1,75,0.00,,,0.98,WUHU216HW,2013-08-19 20:35:00,
2013-08-19 16:40:00,78.5,69.5,30.00,NE,45,1.1,3.1,74,0.00,,,0.98,WUHU216HW,2013-08-19 20:40:00,
2013-08-19 16:45:00,78.8,70.2,30.00,NNE,23,0.9,2.9,75,0.00,,,0.98,WUHU216HW,2013-08-19 20:45:00,
2013-08-19 16:50:00,79.2,69.8,30.00,NNE,23,3.4,3.8,73,0.00,,,0.98,WUHU216HW,2013-08-19 20:50:00,
2013-08-19 16:55:00,79.2,69.4,30.00,East,90,0.7,4.0,72,0.00,,,0.98,WUHU216HW,2013-08-19 20:55:00,
2013-08-19 17:00:00,79.7,70.3,30.00,ENE,68,0.7,4.0,73,0.00,,,0.98,WUHU216HW,2013-08-19 21:00:00,
2013-08-19 17:05:00,79.6,69.3,30.00,NE,45,2.7,3.8,71,0.00,,,0.98,WUHU216HW,2013-08-19 21:05:00,
2013-08-19 17:10:00,79.7,70.3,29.99,NE,45,0.2,3.8,73,0.00,,,0.98,WUHU216HW,2013-08-19 21:10:00,
2013-08-19 17:15:00,80.1,70.3,29.99,NNE,23,2.9,2.9,72,0.00,,,0.98,WUHU216HW,2013-08-19 21:15:00,
2013-08-19 17:20:00,80.8,71.0,29.99,NE,45,0.4,2.9,72,0.00,,,0.98,WUHU216HW,2013-08-19 21:20:00,
2013-08-19 17:25:00,81.4,71.1,29.99,NE,45,0.4,3.6,71,0.00,,,0.98,WUHU216HW,2013-08-19 21:25:00,
2013-08-19 17:30:00,81.7,71.0,29.99,NE,45,4.0,4.0,70,0.00,,,0.98,WUHU216HW,2013-08-19 21:30:00,
2013-08-19 17:35:00,81.4,70.2,29.98,East,90,2.9,4.0,69,0.00,,,0.98,WUHU216HW,2013-08-19 21:35:00,
2013-08-19 17:40:00,80.8,69.8,29.99,ENE,68,1.8,4.5,69,0.00,,,0.98,WUHU216HW,2013-08-19 21:40:00,
2013-08-19 17:45:00,80.3,70.0,29.98,ENE,68,1.8,4.5,71,0.00,,,0.98,WUHU216HW,2013-08-19 21:45:00,
2013-08-19 17:50:00,79.6,69.3,29.98,NE,45,0.0,2.7,71,0.00,,,0.98,WUHU216HW,2013-08-19 21:50:00,
2013-08-19 17:55:00,79.4,69.6,29.99,NNE,23,1.1,2.7,72,0.00,,,0.98,WUHU216HW,2013-08-19 21:55:00,
2013-08-19 18:00:00,79.0,70.0,29.98,North,0,2.2,2.5,74,0.00,,,0.98,WUHU216HW,2013-08-19 22:00:00,
2013-08-19 18:05:00,78.5,69.0,29.98,NE,45,2.0,4.3,73,0.00,,,0.98,WUHU216HW,2013-08-19 22:05:00,
2013-08-19 18:10:00,77.9,68.9,29.99,NE,45,0.4,4.3,74,0.00,,,0.98,WUHU216HW,2013-08-19 22:10:00,
2013-08-19 18:15:00,77.9,69.3,29.99,NNE,23,2.5,3.4,75,0.00,,,0.98,WUHU216HW,2013-08-19 22:15:00,
2013-08-19 18:20:00,77.9,69.3,29.99,NE,45,1.8,2.7,75,0.00,,,0.98,WUHU216HW,2013-08-19 22:20:00,
2013-08-19 18:25:00,77.8,69.2,29.99,NE,45,1.1,3.1,75,0.00,,,0.98,WUHU216HW,2013-08-19 22:25:00,
2013-08-19 18:30:00,77.6,69.4,29.99,ENE,68,0.7,3.1,76,0.00,,,0.98,WUHU216HW,2013-08-19 22:30:00,
2013-08-19 18:35:00,77.4,69.6,29.98,ENE,68,1.1,3.1,77,0.00,,,0.98,WUHU216HW,2013-08-19 22:35:00,
2013-08-19 18:40:00,77.4,69.6,29.98,NE,45,2.2,4.0,77,0.00,,,0.98,WUHU216HW,2013-08-19 22:40:00,
2013-08-19 18:45:00,76.9,69.1,29.99,NE,45,1.8,4.0,77,0.00,,,0.98,WUHU216HW,2013-08-19 22:45:00,
2013-08-19 18:50:00,76.5,69.1,29.99,ENE,68,0.9,2.7,78,0.00,,,0.98,WUHU216HW,2013-08-19 22:50:00,
2013-08-19 18:55:00,76.1,69.2,29.99,NE,45,1.8,2.7,79,0.00,,,0.98,WUHU216HW,2013-08-19 22:55:00,
2013-08-19 19:00:00,75.8,69.2,29.99,ENE,68,0.4,2.5,80,0.00,,,0.98,WUHU216HW,2013-08-19 23:00:00,
2013-08-19 19:05:00,75.6,69.1,29.99,ENE,68,1.1,2.0,80,0.00,,,0.98,WUHU216HW,2013-08-19 23:05:00,
2013-08-19 19:10:00,75.6,69.4,29.99,ENE,68,0.0,1.3,81,0.00,,,0.98,WUHU216HW,2013-08-19 23:10:00,
2013-08-19 19:15:00,75.4,69.3,29.99,ENE,68,0.0,1.1,81,0.00,,,0.98,WUHU216HW,2013-08-19 23:15:00,
2013-08-19 19:20:00,75.2,69.1,30.00,ENE,68,0.0,0.0,81,0.00,,,0.98,WUHU216HW,2013-08-19 23:20:00,
2013-08-19 19:25:00,75.2,69.5,30.00,ENE,68,0.0,0.0,82,0.00,,,0.98,WUHU216HW,2013-08-19 23:25:00,
2013-08-19 19:30:00,74.9,69.1,30.00,ENE,68,0.0,0.0,82,0.00,,,0.98,WUHU216HW,2013-08-19 23:30:00,
2013-08-19 19:35:00,74.5,69.0,29.99,ENE,68,0.0,0.0,83,0.00,,,0.98,WUHU216HW,2013-08-19 23:35:00,
2013-08-19 19:40:00,74.2,68.7,30.00,ENE,68,0.0,0.0,83,0.00,,,0.98,WUHU216HW,2013-08-19 23:40:00,
2013-08-19 19:45:00,73.8,68.7,30.00,ENE,68,0.0,0.0,84,0.00,,,0.98,WUHU216HW,2013-08-19 23:45:00,
2013-08-19 19:50:00,73.4,68.7,29.99,ENE,68,0.9,1.1,85,0.00,,,0.98,WUHU216HW,2013-08-19 23:50:00,
2013-08-19 19:55:00,73.1,68.3,29.99,ENE,68,0.4,1.1,85,0.00,,,0.98,WUHU216HW,2013-08-19 23:55:00,
2013-08-19 20:00:00,72.5,67.8,29.99,ENE,68,0.2,1.1,85,0.00,,,0.98,WUHU216HW,2013-08-20 00:00:00,
2013-08-19 20:05:00,72.4,67.6,30.00,ENE,68,0.2,0.7,85,0.00,,,0.98,WUHU216HW,2013-08-20 00:05:00,
2013-08-19 20:10:00,72.2,67.4,30.00,ENE,68,0.0,0.9,85,0.00,,,0.98,WUHU216HW,2013-08-20 00:10:00,
2013-08-19 20:15:00,72.0,67.6,30.00,ENE,68,0.0,0.9,86,0.00,,,0.98,WUHU216HW,2013-08-20 00:15:00,
2013-08-19 20:20:00,71.8,67.4,30.00,ENE,68,0.0,0.0,86,0.00,,,0.98,WUHU216HW,2013-08-20 00:20:00,
2013-08-19 20:25:00,71.6,67.2,30.00,ENE,68,0.0,0.0,86,0.00,,,0.98,WUHU216HW,2013-08-20 00:25:00,
2013-08-19 20:30:00,71.3,67.2,30.00,ENE,68,0.4,0.4,87,0.00,,,0.98,WUHU216HW,2013-08-20 00:30:00,
2013-08-19 20:35:00,70.9,67.1,30.00,ENE,68,0.7,0.9,88,0.00,,,0.98,WUHU216HW,2013-08-20 00:35:00,
2013-08-19 20:40:00,70.7,67.0,30.00,ENE,68,0.0,0.9,88,0.00,,,0.98,WUHU216HW,2013-08-20 00:40:00,
2013-08-19 20:45:00,70.6,67.1,30.00,ENE,68,0.4,0.9,89,0.00,,,0.98,WUHU216HW,2013-08-20 00:45:00,
2013-08-19 20:50:00,70.4,67.3,30.00,NE,45,1.3,1.6,90,0.00,,,0.98,WUHU216HW,2013-08-20 00:50:00,
2013-08-19 20:55:00,70.4,67.3,30.00,NE,45,0.7,1.6,90,0.00,,,0.98,WUHU216HW,2013-08-20 00:55:00,
2013-08-19 21:00:00,70.4,67.3,30.00,NE,45,1.1,1.6,90,0.00,,,0.98,WUHU216HW,2013-08-20 01:00:00,
2013-08-19 21:05:00,70.2,67.4,30.00,NE,45,0.9,1.8,91,0.00,,,0.98,WUHU216HW,2013-08-20 01:05:00,
2013-08-19 21:10:00,70.2,67.4,30.01,NE,45,0.4,1.8,91,0.00,,,0.98,WUHU216HW,2013-08-20 01:10:00,
2013-08-19 21:15:00,70.2,67.4,30.01,NE,45,0.4,1.6,91,0.00,,,0.98,WUHU216HW,2013-08-20 01:15:00,
2013-08-19 21:20:00,70.0,67.2,30.00,NE,45,0.9,1.6,91,0.00,,,0.98,WUHU216HW,2013-08-20 01:20:00,
2013-08-19 21:25:00,70.0,67.2,30.01,NE,45,0.4,1.1,91,0.00,,,0.98,WUHU216HW,2013-08-20 01:25:00,
2013-08-19 21:30:00,69.8,67.1,30.01,NE,45,0.0,1.1,91,0.00,,,0.98,WUHU216HW,2013-08-20 01:30:00,
2013-08-19 21:35:00,69.8,67.1,30.01,NE,45,0.0,0.4,91,0.00,,,0.98,WUHU216HW,2013-08-20 01:35:00,
2013-08-19 21:40:00,69.7,66.9,30.01,NE,45,0.0,0.7,91,0.00,,,0.98,WUHU216HW,2013-08-20 01:40:00,
2013-08-19 21:45:00,69.5,66.7,30.01,NE,45,1.1,1.1,91,0.00,,,0.98,WUHU216HW,2013-08-20 01:45:00,
2013-08-19 21:50:00,69.3,66.5,30.01,NE,45,0.7,1.1,91,0.00,,,0.98,WUHU216HW,2013-08-20 01:50:00,
2013-08-19 21:55:00,69.3,66.5,30.01,NE,45,0.0,1.1,91,0.00,,,0.98,WUHU216HW,2013-08-20 01:55:00,
2013-08-19 22:00:00,69.3,66.5,30.01,NE,45,0.2,1.1,91,0.00,,,0.98,WUHU216HW,2013-08-20 02:00:00,
2013-08-19 22:05:00,69.3,66.5,30.02,ENE,68,0.2,1.1,91,0.00,,,0.98,WUHU216HW,2013-08-20 02:05:00,
2013-08-19 22:10:00,69.3,66.5,30.01,ENE,68,0.0,0.9,91,0.00,,,0.98,WUHU216HW,2013-08-20 02:10:00,
2013-08-19 22:15:00,69.1,66.3,30.01,ENE,68,0.0,0.7,91,0.00,,,0.98,WUHU216HW,2013-08-20 02:15:00,
2013-08-19 22:20:00,68.9,66.2,30.01,ENE,68,0.0,1.1,91,0.00,,,0.98,WUHU216HW,2013-08-20 02:20:00,
2013-08-19 22:25:00,68.9,66.2,30.01,ENE,68,0.0,1.1,91,0.00,,,0.98,WUHU216HW,2013-08-20 02:25:00,
2013-08-19 22:30:00,68.8,66.0,30.01,ENE,68,0.0,1.1,91,0.00,,,0.98,WUHU216HW,2013-08-20 02:30:00,
2013-08-19 22:35:00,68.6,65.8,30.01,ENE,68,0.0,0.2,91,0.00,,,0.98,WUHU216HW,2013-08-20 02:35:00,
2013-08-19 22:40:00,68.4,65.6,30.02,ENE,68,0.0,0.0,91,0.00,,,0.98,WUHU216HW,2013-08-20 02:40:00,
2013-08-19 22:45:00,68.4,66.0,30.02,ENE,68,0.0,0.0,92,0.00,,,0.98,WUHU216HW,2013-08-20 02:45:00,
2013-08-19 22:50:00,68.2,65.8,30.02,ENE,68,0.0,0.0,92,0.00,,,0.98,WUHU216HW,2013-08-20 02:50:00,
2013-08-19 22:55:00,68.0,65.6,30.02,ENE,68,0.0,0.0,92,0.00,,,0.98,WUHU216HW,2013-08-20 02:55:00,
2013-08-19 23:00:00,68.0,65.6,30.02,NE,45,0.0,0.0,92,0.00,,,0.98,WUHU216HW,2013-08-20 03:00:00,
2013-08-19 23:05:00,68.0,65.6,30.02,NE,45,0.0,0.0,92,0.00,,,0.98,WUHU216HW,2013-08-20 03:05:00,
2013-08-19 23:10:00,68.0,65.6,30.02,NE,45,0.0,0.0,92,0.00,,,0.98,WUHU216HW,2013-08-20 03:10:00,
2013-08-19 23:15:00,68.0,65.6,30.02,NE,45,0.0,0.0,92,0.00,,,0.98,WUHU216HW,2013-08-20 03:15:00,
2013-08-19 23:20:00,68.0,65.6,30.03,NE,45,0.0,0.0,92,0.00,,,0.98,WUHU216HW,2013-08-20 03:20:00,
2013-08-19 23:25:00,67.9,65.4,30.02,NE,45,0.0,0.0,92,0.00,,,0.98,WUHU216HW,2013-08-20 03:25:00,
2013-08-19 23:30:00,67.7,65.3,30.03,NE,45,0.0,0.0,92,0.00,,,0.98,WUHU216HW,2013-08-20 03:30:00,
2013-08-19 23:35:00,67.7,65.5,30.03,NE,45,0.0,0.0,93,0.00,,,0.98,WUHU216HW,2013-08-20 03:35:00,
2013-08-19 23:40:00,67.7,65.5,30.03,NE,45,0.0,0.0,93,0.00,,,0.98,WUHU216HW,2013-08-20 03:40:00,
2013-08-19 23:45:00,67.7,65.5,30.03,NE,45,0.0,0.0,93,0.00,,,0.98,WUHU216HW,2013-08-20 03:45:00,
2013-08-19 23:50:00,67.7,65.5,30.03,NE,45,0.9,0.9,93,0.00,,,0.98,WUHU216HW,2013-08-20 03:50:00,
2013-08-19 23:55:00,67.9,65.7,30.03,NE,45,0.0,0.9,93,0.00,,,0.98,WUHU216HW,2013-08-20 03:55:00,